sensor_id;sensor_type;location;lat;lon;timestamp;P1;durP1;ratioP1;P2;durP2;ratioP2
9234;SDS011;4652;42.716;23.218;2023-02-11T00:05:37;23.67;;;11.83;;
9234;SDS011;4652;42.716;23.218;2023-02-11T00:12:19;31.27;;;14.63;;
9234;SDS011;4652;42.716;23.218;2023-02-11T00:19:02;23.50;;;11.50;;
9234;SDS011;4652;42.716;23.218;2023-02-11T00:25:47;18.60;;;11.00;;
9234;SDS011;4652;42.716;23.218;2023-02-11T00:32:29;22.00;;;11.47;;
9234;SDS011;4652;42.716;23.218;2023-02-11T00:39:11;31.53;;;13.73;;
9234;SDS011;4652;42.716;23.218;2023-02-11T00:45:54;28.27;;;13.93;;
9234;SDS011;4652;42.716;23.218;2023-02-11T00:52:37;34.77;;;14.53;;
9234;SDS011;4652;42.716;23.218;2023-02-11T00:59:19;37.03;;;14.77;;
9234;SDS011;4652;42.716;23.218;2023-02-11T01:06:03;30.73;;;15.37;;
9234;SDS011;4652;42.716;23.218;2023-02-11T01:12:46;27.57;;;13.30;;
9234;SDS011;4652;42.716;23.218;2023-02-11T01:19:28;22.90;;;12.27;;
9234;SDS011;4652;42.716;23.218;2023-02-11T01:26:12;29.30;;;13.20;;
9234;SDS011;4652;42.716;23.218;2023-02-11T01:32:54;32.03;;;14.93;;
9234;SDS011;4652;42.716;23.218;2023-02-11T01:39:36;30.60;;;15.73;;
9234;SDS011;4652;42.716;23.218;2023-02-11T01:53:15;24.13;;;13.17;;
9234;SDS011;4652;42.716;23.218;2023-02-11T08:07:51;33.30;;;24.30;;
9234;SDS011;4652;42.716;23.218;2023-02-11T14:08:13;17.27;;;10.60;;
9234;SDS011;4652;42.716;23.218;2023-02-11T14:15:24;21.13;;;13.23;;
9234;SDS011;4652;42.716;23.218;2023-02-11T14:22:11;21.63;;;14.87;;
9234;SDS011;4652;42.716;23.218;2023-02-11T14:28:59;14.53;;;9.90;;
9234;SDS011;4652;42.716;23.218;2023-02-11T14:36:00;12.43;;;8.70;;
9234;SDS011;4652;42.716;23.218;2023-02-11T14:42:48;12.40;;;8.67;;
9234;SDS011;4652;42.716;23.218;2023-02-11T14:49:35;12.23;;;9.27;;
9234;SDS011;4652;42.716;23.218;2023-02-11T14:56:21;16.73;;;10.30;;
9234;SDS011;4652;42.716;23.218;2023-02-11T15:03:05;124.00;;;68.73;;
9234;SDS011;4652;42.716;23.218;2023-02-11T15:09:50;142.73;;;60.40;;
9234;SDS011;4652;42.716;23.218;2023-02-11T15:16:34;227.90;;;78.67;;
9234;SDS011;4652;42.716;23.218;2023-02-11T15:23:24;698.87;;;275.57;;
9234;SDS011;4652;42.716;23.218;2023-02-11T15:37:22;659.43;;;295.53;;
9234;SDS011;4652;42.716;23.218;2023-02-11T15:44:24;479.33;;;256.83;;
9234;SDS011;4652;42.716;23.218;2023-02-11T15:51:07;27.53;;;17.33;;
9234;SDS011;4652;42.716;23.218;2023-02-11T20:38:42;10.63;;;6.47;;
9234;SDS011;4652;42.716;23.218;2023-02-11T20:45:24;10.60;;;6.77;;
9234;SDS011;4652;42.716;23.218;2023-02-11T20:52:06;9.67;;;6.47;;
9234;SDS011;4652;42.716;23.218;2023-02-11T20:58:50;15.00;;;9.97;;
9234;SDS011;4652;42.716;23.218;2023-02-11T21:05:32;14.70;;;8.83;;
9234;SDS011;4652;42.716;23.218;2023-02-11T21:12:15;15.40;;;9.77;;
9234;SDS011;4652;42.716;23.218;2023-02-11T21:18:58;15.73;;;9.53;;
9234;SDS011;4652;42.716;23.218;2023-02-11T21:25:42;14.90;;;9.23;;
9234;SDS011;4652;42.716;23.218;2023-02-11T21:32:24;13.40;;;8.53;;
9234;SDS011;4652;42.716;23.218;2023-02-11T21:39:07;17.30;;;11.03;;
9234;SDS011;4652;42.716;23.218;2023-02-11T21:45:49;20.57;;;12.67;;
9234;SDS011;4652;42.716;23.218;2023-02-11T21:52:32;17.77;;;9.40;;
9234;SDS011;4652;42.716;23.218;2023-02-11T21:59:15;15.17;;;8.97;;
9234;SDS011;4652;42.716;23.218;2023-02-11T22:05:58;12.43;;;7.90;;
9234;SDS011;4652;42.716;23.218;2023-02-11T22:12:40;14.77;;;9.23;;
9234;SDS011;4652;42.716;23.218;2023-02-11T22:19:23;16.27;;;10.27;;
9234;SDS011;4652;42.716;23.218;2023-02-11T22:26:06;19.63;;;10.67;;
9234;SDS011;4652;42.716;23.218;2023-02-11T22:32:49;15.30;;;9.47;;
9234;SDS011;4652;42.716;23.218;2023-02-11T22:39:33;15.57;;;9.60;;
9234;SDS011;4652;42.716;23.218;2023-02-11T22:46:15;14.33;;;8.80;;
9234;SDS011;4652;42.716;23.218;2023-02-11T22:52:59;14.67;;;8.67;;
9234;SDS011;4652;42.716;23.218;2023-02-11T22:59:42;13.47;;;9.43;;
9234;SDS011;4652;42.716;23.218;2023-02-11T23:06:24;15.70;;;8.87;;
9234;SDS011;4652;42.716;23.218;2023-02-11T23:13:06;17.20;;;11.37;;
9234;SDS011;4652;42.716;23.218;2023-02-11T23:19:50;15.80;;;10.37;;
9234;SDS011;4652;42.716;23.218;2023-02-11T23:26:33;16.83;;;10.33;;
9234;SDS011;4652;42.716;23.218;2023-02-11T23:33:15;14.30;;;9.90;;
9234;SDS011;4652;42.716;23.218;2023-02-11T23:39:58;15.60;;;10.17;;
9234;SDS011;4652;42.716;23.218;2023-02-11T23:46:40;13.13;;;9.43;;
9234;SDS011;4652;42.716;23.218;2023-02-11T23:53:22;15.80;;;9.10;;
